Time;durP1;ratioP1;P1;durP2;ratioP2;P2;SDS_P1;SDS_P2;PMS_P1;PMS_P2;Temp;Humidity;BMP_temperature;BMP_pressure;BME280_temperature;BME280_humidity;BME280_pressure;Samples;Min_cycle;Max_cycle;Signal;HPM_P1;HPM_P2
2022/05/07 00:00:41;;;;;;;15.40;8.63;;;17.60;73.40;;;;;;5061854;28;20911;-68
2022/05/07 00:03:07;;;;;;;13.93;8.00;;;17.60;73.70;;;;;;5068759;28;20403;-67
2022/05/07 00:05:33;;;;;;;14.05;7.90;;;17.60;74.00;;;;;;5065849;28;20439;-69
2022/05/07 00:07:59;;;;;;;12.65;7.90;;;17.50;74.00;;;;;;5066358;28;20435;-68
2022/05/07 00:10:24;;;;;;;15.87;7.83;;;17.60;74.40;;;;;;5066136;28;20443;-68
2022/05/07 00:12:50;;;;;;;14.03;7.27;;;17.50;74.40;;;;;;5066713;28;20414;-69
2022/05/07 00:15:16;;;;;;;14.93;6.65;;;17.40;74.70;;;;;;5066315;28;20468;-68
2022/05/07 00:20:26;;;;;;;14.85;6.82;;;17.30;75.40;;;;;;5063619;28;20415;-69
2022/05/07 00:22:52;;;;;;;14.82;6.85;;;17.20;75.80;;;;;;5067087;28;20449;-69
2022/05/07 00:25:18;;;;;;;11.97;5.77;;;17.20;76.30;;;;;;5065543;28;20776;-68
2022/05/07 00:27:43;;;;;;;13.40;6.10;;;17.20;76.70;;;;;;5065150;28;20419;-68
2022/05/07 00:30:09;;;;;;;12.38;6.25;;;17.10;77.20;;;;;;5067070;28;20799;-68
2022/05/07 00:32:35;;;;;;;11.18;5.72;;;17.10;77.50;;;;;;5050127;28;20976;-70
2022/05/07 00:35:01;;;;;;;13.40;5.77;;;17.10;78.00;;;;;;5063647;28;20452;-68
2022/05/07 00:37:27;;;;;;;13.43;5.95;;;17.10;78.50;;;;;;5063809;28;20419;-69
2022/05/07 00:39:52;;;;;;;12.98;6.00;;;17.00;78.90;;;;;;5064307;28;20768;-69
2022/05/07 00:42:20;;;;;;;13.27;5.93;;;17.00;79.60;;;;;;5065221;28;20407;-69
2022/05/07 00:44:46;;;;;;;16.52;6.18;;;16.90;80.10;;;;;;5065280;28;21302;-69
2022/05/07 00:47:15;;;;;;;11.10;5.53;;;16.90;80.30;;;;;;5064581;28;20412;-70
2022/05/07 00:49:43;;;;;;;16.38;6.18;;;16.90;80.70;;;;;;5064462;28;20423;-69
2022/05/07 00:52:09;;;;;;;11.40;5.55;;;16.90;81.00;;;;;;5066733;28;20402;-70
2022/05/07 00:54:35;;;;;;;13.10;5.72;;;16.90;81.40;;;;;;5064241;28;20400;-70
2022/05/07 00:57:02;;;;;;;16.23;5.70;;;16.90;81.70;;;;;;5063005;28;20411;-69
2022/05/07 00:59:28;;;;;;;12.90;5.45;;;16.80;82.20;;;;;;5064159;28;20867;-69
2022/05/07 01:01:54;;;;;;;13.60;6.00;;;16.80;82.90;;;;;;5065295;28;20403;-69
2022/05/07 01:04:22;;;;;;;16.63;5.97;;;16.70;83.40;;;;;;5064891;28;20407;-70
2022/05/07 01:06:48;;;;;;;13.90;6.07;;;16.70;83.90;;;;;;5064700;28;20520;-69
2022/05/07 01:09:14;;;;;;;17.58;6.57;;;16.60;84.40;;;;;;5063190;28;20524;-68
2022/05/07 01:11:42;;;;;;;15.52;6.20;;;16.60;84.70;;;;;;5066552;28;20430;-69
2022/05/07 01:14:09;;;;;;;16.98;6.47;;;16.60;85.10;;;;;;5064358;28;20421;-68
2022/05/07 01:16:35;;;;;;;16.88;6.10;;;16.60;85.70;;;;;;5047671;28;20411;-69
2022/05/07 01:19:00;;;;;;;16.52;6.63;;;16.50;86.10;;;;;;5062005;28;20410;-69
2022/05/07 01:21:27;;;;;;;16.63;6.47;;;16.50;86.80;;;;;;5066102;28;20392;-68
2022/05/07 01:23:55;;;;;;;15.48;6.35;;;16.40;87.20;;;;;;5064315;28;21245;-69
2022/05/07 01:26:26;;;;;;;15.43;6.63;;;16.40;87.50;;;;;;5062921;28;20509;-69
2022/05/07 01:28:59;;;;;;;15.40;6.53;;;16.40;87.90;;;;;;5063035;28;20407;-68
2022/05/07 01:31:29;;;;;;;17.27;6.88;;;16.40;88.20;;;;;;5066856;28;20392;-69
2022/05/07 01:33:55;;;;;;;18.05;6.55;;;16.40;88.70;;;;;;5064408;28;20419;-69
2022/05/07 01:36:22;;;;;;;14.85;6.72;;;16.40;89.00;;;;;;5065095;28;20412;-68
2022/05/07 01:38:54;;;;;;;17.50;7.10;;;16.30;89.00;;;;;;5066925;28;20419;-68
2022/05/07 01:41:20;;;;;;;14.30;6.78;;;16.30;89.50;;;;;;5069277;28;20450;-68
2022/05/07 01:43:47;;;;;;;19.25;7.22;;;16.30;90.00;;;;;;5068441;28;20407;-67
2022/05/07 01:49:01;;;;;;;18.20;7.25;;;16.30;90.10;;;;;;5068779;28;20415;-68
2022/05/07 01:51:28;;;;;;;17.40;7.40;;;16.30;90.30;;;;;;5069647;28;20415;-68
2022/05/07 01:53:55;;;;;;;23.17;8.02;;;16.20;90.50;;;;;;5067060;28;20412;-69
2022/05/07 01:56:22;;;;;;;21.52;7.88;;;16.20;90.60;;;;;;5070099;28;20411;-69
2022/05/07 01:58:49;;;;;;;15.90;7.45;;;16.30;90.70;;;;;;5067222;28;20502;-69
2022/05/07 02:01:16;;;;;;;22.80;8.13;;;16.20;90.80;;;;;;5070276;28;20872;-69
2022/05/07 02:03:41;;;;;;;20.88;8.75;;;16.20;90.90;;;;;;5067249;28;20409;-70
2022/05/07 02:06:08;;;;;;;23.15;8.73;;;16.10;91.20;;;;;;5067697;28;20909;-68
2022/05/07 02:08:34;;;;;;;20.77;8.60;;;16.10;91.40;;;;;;5068155;28;20433;-69
2022/05/07 02:11:04;;;;;;;21.45;9.13;;;16.10;91.50;;;;;;5067645;28;20411;-68
2022/05/07 02:13:30;;;;;;;22.45;9.32;;;16.10;91.80;;;;;;5068629;28;20958;-68
2022/05/07 02:15:57;;;;;;;24.73;9.70;;;16.00;92.00;;;;;;5052438;28;20413;-68
2022/05/07 02:18:23;;;;;;;22.58;9.45;;;16.00;92.20;;;;;;5066313;28;20418;-68
2022/05/07 02:20:49;;;;;;;22.90;10.50;;;16.00;92.30;;;;;;5070236;28;20419;-68
2022/05/07 02:23:17;;;;;;;27.10;10.15;;;16.00;92.50;;;;;;5068598;28;20407;-68
2022/05/07 02:25:43;;;;;;;24.52;10.38;;;16.00;92.60;;;;;;5068978;28;20419;-69
2022/05/07 02:28:09;;;;;;;25.30;11.00;;;16.00;92.60;;;;;;5069235;28;20427;-70
2022/05/07 02:30:34;;;;;;;26.92;10.95;;;16.10;92.70;;;;;;5067216;28;20529;-69
2022/05/07 02:33:05;;;;;;;26.43;10.97;;;16.00;92.70;;;;;;5068272;28;20472;-70
2022/05/07 02:35:34;;;;;;;27.20;11.32;;;16.00;92.70;;;;;;5049077;28;20502;-68
2022/05/07 02:38:00;;;;;;;27.27;11.15;;;16.00;92.70;;;;;;5048727;28;20411;-68
2022/05/07 02:40:27;;;;;;;32.75;11.90;;;16.00;93.00;;;;;;5064041;28;20922;-69
2022/05/07 02:42:54;;;;;;;28.80;11.68;;;16.00;93.10;;;;;;5068324;28;20460;-69
2022/05/07 02:45:22;;;;;;;31.10;12.05;;;15.90;93.30;;;;;;5066552;28;20771;-69
2022/05/07 02:48:01;;;;;;;26.88;11.60;;;15.90;93.50;;;;;;5049844;28;20427;-69
2022/05/07 02:50:28;;;;;;;32.43;12.30;;;15.90;93.70;;;;;;5065305;28;20439;-69
2022/05/07 02:52:54;;;;;;;30.80;12.68;;;15.90;93.80;;;;;;5066208;28;20403;-69
2022/05/07 02:55:20;;;;;;;27.73;12.60;;;15.80;94.00;;;;;;5066690;28;20930;-70
2022/05/07 02:57:50;;;;;;;28.88;13.10;;;15.80;94.10;;;;;;5051340;28;20454;-68
2022/05/07 03:00:17;;;;;;;27.50;13.38;;;15.80;94.20;;;;;;5061317;28;20407;-69
2022/05/07 03:02:43;;;;;;;32.47;13.60;;;15.80;94.30;;;;;;5066735;28;20974;-69
2022/05/07 03:05:09;;;;;;;30.92;13.77;;;15.80;94.40;;;;;;5065604;28;20420;-69
2022/05/07 03:07:34;;;;;;;30.73;13.73;;;15.80;94.50;;;;;;5066453;28;20404;-70
2022/05/07 03:10:06;;;;;;;32.25;14.30;;;15.80;94.50;;;;;;5065401;28;20522;-69
2022/05/07 03:12:35;;;;;;;31.53;14.90;;;15.80;94.70;;;;;;5067463;28;20399;-70
2022/05/07 03:15:01;;;;;;;34.65;15.23;;;15.80;94.80;;;;;;5064881;28;20422;-69
2022/05/07 03:17:34;;;;;;;33.83;14.90;;;15.80;94.90;;;;;;5062346;28;20421;-69
2022/05/07 03:20:03;;;;;;;35.27;15.70;;;15.80;95.00;;;;;;5064170;28;20492;-70
2022/05/07 03:22:28;;;;;;;38.33;15.70;;;15.80;95.20;;;;;;5066724;28;20399;-67
2022/05/07 03:24:56;;;;;;;38.80;15.95;;;15.80;95.30;;;;;;5066052;28;20395;-68
2022/05/07 03:27:29;;;;;;;35.10;16.15;;;15.80;95.50;;;;;;5060473;28;20384;-70
2022/05/07 03:29:55;;;;;;;38.35;17.15;;;15.80;95.60;;;;;;5063123;28;20408;-68
2022/05/07 03:32:21;;;;;;;39.93;16.57;;;15.80;95.60;;;;;;5029961;28;1063295;-68
2022/05/07 03:34:50;;;;;;;39.97;18.20;;;15.80;95.60;;;;;;5064310;28;20526;-69
2022/05/07 03:37:17;;;;;;;40.50;17.98;;;15.90;95.70;;;;;;5067582;28;20533;-69
2022/05/07 03:39:44;;;;;;;41.25;18.50;;;15.90;95.70;;;;;;5066129;28;20446;-69
2022/05/07 03:42:13;;;;;;;42.00;19.15;;;15.90;95.80;;;;;;5063433;28;20926;-69
2022/05/07 03:44:39;;;;;;;39.78;20.08;;;15.90;95.90;;;;;;5067673;28;20395;-68
2022/05/07 03:47:06;;;;;;;44.25;19.92;;;15.90;95.90;;;;;;5068376;28;20402;-68
2022/05/07 03:49:32;;;;;;;41.95;19.75;;;15.90;95.90;;;;;;5065654;28;20764;-68
2022/05/07 03:54:43;;;;;;;43.73;20.43;;;15.90;95.90;;;;;;5066204;28;20435;-66
2022/05/07 03:57:13;;;;;;;46.00;20.50;;;15.90;96.00;;;;;;5066833;28;20964;-70
2022/05/07 03:59:40;;;;;;;43.47;21.60;;;16.00;96.00;;;;;;5059686;28;20783;-69
2022/05/07 04:02:06;;;;;;;44.10;21.05;;;16.00;96.00;;;;;;5066918;28;20435;-68
2022/05/07 04:04:45;;;;;;;45.17;21.95;;;16.00;95.90;;;;;;5051918;28;20768;-68
2022/05/07 04:07:14;;;;;;;43.55;21.67;;;16.00;95.90;;;;;;5066448;28;20769;-69
2022/05/07 04:09:44;;;;;;;47.17;22.38;;;16.00;95.90;;;;;;5063456;28;20407;-68
2022/05/07 04:12:11;;;;;;;47.23;21.90;;;16.00;95.90;;;;;;5051181;28;20407;-69
2022/05/07 04:14:37;;;;;;;45.60;23.08;;;16.00;95.90;;;;;;5067150;28;20434;-70
2022/05/07 04:17:05;;;;;;;46.93;23.03;;;16.00;96.10;;;;;;5049511;28;20427;-67
2022/05/07 04:19:31;;;;;;;48.43;23.17;;;16.00;96.00;;;;;;5064640;28;20906;-69
2022/05/07 04:21:58;;;;;;;48.28;23.95;;;16.00;96.10;;;;;;5033802;28;20412;-69
2022/05/07 04:24:36;;;;;;;45.60;24.40;;;16.00;96.20;;;;;;5066925;28;20399;-69
2022/05/07 04:27:02;;;;;;;46.13;23.75;;;16.00;96.10;;;;;;5066415;28;20420;-67
2022/05/07 04:29:28;;;;;;;46.17;23.77;;;16.00;96.10;;;;;;5066417;28;20418;-70
2022/05/07 04:32:02;;;;;;;47.63;24.30;;;16.00;96.10;;;;;;5065340;28;20410;-69
2022/05/07 04:34:29;;;;;;;41.85;24.90;;;16.10;95.90;;;;;;5063965;28;20552;-68
2022/05/07 04:36:56;;;;;;;46.83;24.92;;;16.10;95.90;;;;;;5065659;28;20415;-70
2022/05/07 04:39:22;;;;;;;42.07;24.60;;;16.10;95.80;;;;;;5047956;28;20775;-69
2022/05/07 04:41:57;;;;;;;47.03;24.42;;;16.20;95.80;;;;;;5064120;28;20540;-66
2022/05/07 04:44:31;;;;;;;49.08;24.90;;;16.20;95.70;;;;;;5065722;28;20422;-69
2022/05/07 04:46:57;;;;;;;49.47;25.30;;;16.20;95.70;;;;;;5064357;28;20409;-69
2022/05/07 04:49:24;;;;;;;45.42;24.60;;;16.20;95.60;;;;;;5066526;28;20408;-68
2022/05/07 04:51:50;;;;;;;45.03;24.67;;;16.20;95.50;;;;;;5065748;28;20429;-70
2022/05/07 04:54:23;;;;;;;49.67;25.17;;;16.30;95.50;;;;;;5059340;28;20541;-69
2022/05/07 04:56:51;;;;;;;48.60;26.10;;;16.30;95.60;;;;;;5065175;28;20892;-70
2022/05/07 04:59:19;;;;;;;48.00;26.10;;;16.30;95.50;;;;;;5050227;28;20768;-70
2022/05/07 05:01:50;;;;;;;47.45;25.90;;;16.30;95.50;;;;;;5047874;28;20904;-70
2022/05/07 05:04:19;;;;;;;42.35;24.85;;;16.30;95.50;;;;;;5068523;28;20398;-70
2022/05/07 05:06:46;;;;;;;47.05;26.27;;;16.30;95.40;;;;;;5063327;28;20920;-68
2022/05/07 05:09:15;;;;;;;48.95;26.05;;;16.40;95.40;;;;;;5064073;28;20482;-69
2022/05/07 05:12:13;;;;;;;49.20;25.10;;;16.40;95.40;;;;;;5065239;28;20411;-69
2022/05/07 05:18:01;;;;;;;46.80;26.25;;;16.50;95.30;;;;;;5068325;28;20412;-69
2022/05/07 05:20:30;;;;;;;47.83;26.07;;;16.50;95.10;;;;;;5063601;28;20403;-69
2022/05/07 05:23:13;;;;;;;47.25;25.83;;;16.50;94.90;;;;;;5065487;28;20506;-69
2022/05/07 05:25:45;;;;;;;52.35;27.60;;;16.50;94.90;;;;;;5049356;28;20920;-69
2022/05/07 05:28:19;;;;;;;48.03;26.70;;;16.50;95.00;;;;;;5064857;28;20416;-69
2022/05/07 05:30:51;;;;;;;48.90;26.10;;;16.50;95.00;;;;;;5063519;28;20933;-69
2022/05/07 05:33:19;;;;;;;44.07;26.33;;;16.60;94.90;;;;;;5064512;28;20427;-68
2022/05/07 05:35:57;;;;;;;44.50;24.97;;;16.70;94.90;;;;;;5061378;28;20419;-70
2022/05/07 05:38:26;;;;;;;47.00;25.98;;;16.80;94.90;;;;;;5048514;28;20815;-69
2022/05/07 05:40:52;;;;;;;49.25;25.38;;;16.80;94.70;;;;;;5046334;28;20459;-69
2022/05/07 05:43:18;;;;;;;45.43;24.97;;;16.90;94.40;;;;;;5063070;28;20412;-69
2022/05/07 05:45:49;;;;;;;45.97;24.42;;;16.90;94.40;;;;;;5047442;28;20422;-70
2022/05/07 05:48:15;;;;;;;42.03;24.10;;;16.90;94.30;;;;;;5063130;28;20411;-69
2022/05/07 05:50:45;;;;;;;43.95;24.67;;;16.90;94.10;;;;;;5065261;28;20396;-70
2022/05/07 05:53:11;;;;;;;46.10;25.13;;;17.00;94.10;;;;;;5058917;28;20419;-70
2022/05/07 05:55:40;;;;;;;46.30;24.80;;;16.90;94.10;;;;;;5063540;28;20419;-69
2022/05/07 05:58:06;;;;;;;47.20;26.60;;;17.00;94.20;;;;;;5063117;28;20435;-68
2022/05/07 06:00:34;;;;;;;45.60;25.63;;;17.00;94.00;;;;;;5066396;28;20425;-66
2022/05/07 06:03:00;;;;;;;44.47;24.47;;;17.10;94.20;;;;;;5064273;28;20506;-69
2022/05/07 06:05:29;;;;;;;45.55;24.67;;;17.10;93.90;;;;;;5065617;28;20400;-69
2022/05/07 06:07:55;;;;;;;46.45;25.17;;;17.20;93.70;;;;;;5065225;28;20769;-68
2022/05/07 06:10:29;;;;;;;45.90;25.65;;;17.20;93.80;;;;;;5064421;28;20422;-69
2022/05/07 06:12:55;;;;;;;43.33;25.40;;;17.20;93.90;;;;;;5057520;28;20411;-69
2022/05/07 06:15:22;;;;;;;49.63;25.65;;;17.30;93.90;;;;;;5064018;28;20799;-69
2022/05/07 06:17:47;;;;;;;45.10;25.20;;;17.30;93.80;;;;;;5059813;28;20459;-70
2022/05/07 06:20:14;;;;;;;42.83;25.42;;;17.30;93.80;;;;;;5064531;28;20749;-69
2022/05/07 06:22:46;;;;;;;45.37;24.50;;;17.40;93.60;;;;;;5049822;28;20763;-70
2022/05/07 06:28:01;;;;;;;41.75;24.88;;;17.40;93.50;;;;;;5063139;28;20439;-70
2022/05/07 06:30:35;;;;;;;45.47;25.13;;;17.50;93.60;;;;;;5069551;28;20757;-67
2022/05/07 06:33:02;;;;;;;43.55;24.67;;;17.50;93.50;;;;;;5067357;28;20431;-69
2022/05/07 06:35:36;;;;;;;39.70;24.13;;;17.50;93.50;;;;;;5067845;28;20847;-69
2022/05/07 06:38:08;;;;;;;42.70;24.33;;;17.40;93.60;;;;;;5066427;28;20802;-69
2022/05/07 06:40:37;;;;;;;42.30;25.92;;;17.50;93.70;;;;;;5050913;28;20400;-69
2022/05/07 06:43:03;;;;;;;44.70;24.45;;;17.60;93.90;;;;;;5066736;28;20935;-68
2022/05/07 06:45:38;;;;;;;43.35;25.60;;;17.70;93.60;;;;;;5064607;28;20408;-69
2022/05/07 06:48:08;;;;;;;45.15;25.63;;;17.80;93.30;;;;;;5065422;28;20854;-65
2022/05/07 06:50:34;;;;;;;43.10;25.90;;;17.90;93.00;;;;;;5064868;28;20430;-68
2022/05/07 06:53:00;;;;;;;49.33;27.07;;;18.00;92.50;;;;;;5068660;28;20400;-70
2022/05/07 06:55:26;;;;;;;45.22;26.83;;;18.10;92.40;;;;;;5066223;28;20445;-70
2022/05/07 06:57:53;;;;;;;47.28;27.67;;;18.20;92.30;;;;;;5067308;28;20498;-69
2022/05/07 07:00:18;;;;;;;44.63;26.87;;;18.20;91.70;;;;;;5064253;28;20419;-68
2022/05/07 07:02:44;;;;;;;44.72;26.33;;;18.20;91.90;;;;;;5063006;28;20459;-67
2022/05/07 07:05:10;;;;;;;46.07;27.50;;;18.20;91.90;;;;;;5062743;28;20409;-69
2022/05/07 07:07:36;;;;;;;43.77;26.90;;;18.30;91.70;;;;;;5065902;28;20750;-69
2022/05/07 07:10:01;;;;;;;48.10;26.63;;;18.40;91.50;;;;;;5067068;28;20427;-68
2022/05/07 07:12:29;;;;;;;49.93;26.50;;;18.40;91.50;;;;;;5066233;28;20946;-65
2022/05/07 07:14:54;;;;;;;43.80;25.80;;;18.40;91.20;;;;;;5066925;28;20441;-65
2022/05/07 07:17:20;;;;;;;45.20;26.57;;;18.40;91.00;;;;;;5065299;28;20419;-70
2022/05/07 07:19:46;;;;;;;45.00;26.05;;;18.40;91.30;;;;;;5068977;28;20416;-69
2022/05/07 07:22:12;;;;;;;46.40;26.67;;;18.50;91.20;;;;;;5064548;28;20450;-70
2022/05/07 07:24:38;;;;;;;46.17;27.30;;;18.60;90.60;;;;;;5065245;28;20466;-70
2022/05/07 07:27:05;;;;;;;47.22;26.35;;;18.70;90.50;;;;;;5067320;28;20407;-69
2022/05/07 07:29:33;;;;;;;41.92;25.67;;;18.90;90.00;;;;;;5067142;28;20419;-70
2022/05/07 07:31:59;;;;;;;42.85;25.63;;;19.00;89.00;;;;;;5066746;28;20421;-67
2022/05/07 07:34:24;;;;;;;48.75;27.10;;;19.10;88.80;;;;;;5063649;28;20757;-69
2022/05/07 07:36:51;;;;;;;44.95;26.90;;;19.20;88.20;;;;;;5066495;28;20399;-70
2022/05/07 07:39:17;;;;;;;43.58;25.80;;;19.20;87.70;;;;;;5066731;28;20857;-69
2022/05/07 07:41:44;;;;;;;45.78;26.90;;;19.20;87.30;;;;;;5064329;28;20434;-69
2022/05/07 07:44:10;;;;;;;46.35;26.35;;;19.30;87.50;;;;;;5068681;28;20392;-69
2022/05/07 07:49:20;;;;;;;43.88;26.02;;;19.50;86.10;;;;;;5066606;28;21016;-70
2022/05/07 07:51:46;;;;;;;43.25;26.00;;;19.60;86.20;;;;;;5065418;28;20399;-69
2022/05/07 07:54:12;;;;;;;45.43;25.90;;;19.70;85.10;;;;;;5067809;28;20411;-69
2022/05/07 07:56:38;;;;;;;42.80;24.80;;;19.80;85.00;;;;;;5063906;28;20407;-68
2022/05/07 07:59:03;;;;;;;38.63;23.67;;;19.90;84.40;;;;;;5067941;28;20733;-69
2022/05/07 08:01:29;;;;;;;42.07;24.63;;;20.00;83.50;;;;;;5065951;28;20888;-69
2022/05/07 08:03:55;;;;;;;40.95;22.75;;;20.10;83.10;;;;;;5049637;28;20415;-71
2022/05/07 08:06:20;;;;;;;40.65;23.75;;;20.20;82.40;;;;;;5032272;28;20460;-70
2022/05/07 08:11:55;;;;;;;41.45;22.88;;;20.30;81.30;;;;;;5064295;28;20434;-69
2022/05/07 08:14:21;;;;;;;37.08;21.25;;;20.40;81.40;;;;;;5066978;28;20404;-69
2022/05/07 08:16:47;;;;;;;38.22;21.52;;;20.70;80.80;;;;;;5066455;28;20411;-71
2022/05/07 08:19:12;;;;;;;35.23;21.17;;;21.40;78.80;;;;;;5067844;28;21059;-70
2022/05/07 08:21:38;;;;;;;34.63;19.37;;;22.30;75.10;;;;;;5065007;28;20912;-68
2022/05/07 08:24:04;;;;;;;33.33;19.95;;;23.30;69.50;;;;;;5067464;28;20438;-69
2022/05/07 08:26:30;;;;;;;32.70;19.35;;;23.80;65.90;;;;;;5065833;28;20503;-70
2022/05/07 08:28:56;;;;;;;36.70;19.80;;;23.90;64.30;;;;;;5065705;28;20490;-70
2022/05/07 08:31:22;;;;;;;35.15;20.40;;;23.80;63.80;;;;;;5065897;28;20408;-69
2022/05/07 08:33:49;;;;;;;31.92;19.60;;;23.70;64.40;;;;;;5066898;28;20419;-69
2022/05/07 08:36:16;;;;;;;33.83;20.67;;;23.40;65.20;;;;;;5065375;28;20430;-69
2022/05/07 08:38:42;;;;;;;31.75;19.33;;;23.30;66.00;;;;;;5066435;28;20417;-70
2022/05/07 08:41:10;;;;;;;35.53;20.38;;;23.20;66.30;;;;;;5065570;28;20503;-70
2022/05/07 08:43:38;;;;;;;36.15;19.90;;;23.20;66.50;;;;;;5064567;28;20415;-69
2022/05/07 08:46:16;;;;;;;32.83;19.48;;;23.30;66.30;;;;;;5064314;28;20419;-70
2022/05/07 08:48:43;;;;;;;32.40;19.75;;;23.50;65.50;;;;;;5066654;28;20411;-69
2022/05/07 08:51:10;;;;;;;32.80;18.55;;;23.70;65.70;;;;;;5066334;28;20415;-70
2022/05/07 08:53:36;;;;;;;29.75;17.80;;;24.10;64.40;;;;;;5063536;28;20420;-69
2022/05/07 08:56:02;;;;;;;31.47;18.60;;;24.70;61.70;;;;;;5065020;28;20415;-70
2022/05/07 08:58:29;;;;;;;31.23;18.55;;;25.40;59.00;;;;;;5068022;28;20888;-70
2022/05/07 09:00:55;;;;;;;28.25;17.25;;;26.10;56.90;;;;;;5063993;28;20429;-71
2022/05/07 09:03:20;;;;;;;27.33;16.52;;;27.10;53.90;;;;;;5065326;28;20438;-69
2022/05/07 09:05:46;;;;;;;30.42;17.30;;;28.10;50.70;;;;;;5063373;28;20407;-71
2022/05/07 09:08:12;;;;;;;26.10;16.73;;;29.20;47.90;;;;;;5064102;28;20419;-68
2022/05/07 09:10:40;;;;;;;26.63;15.98;;;30.20;44.90;;;;;;5063782;28;20912;-68
2022/05/07 09:13:16;;;;;;;27.48;16.42;;;31.00;42.90;;;;;;5064275;28;20426;-70
2022/05/07 09:15:56;;;;;;;24.15;14.68;;;31.90;41.00;;;;;;5065667;28;20415;-71
2022/05/07 09:18:23;;;;;;;23.67;13.90;;;32.50;39.40;;;;;;5065412;28;20414;-71
2022/05/07 09:21:23;;;;;;;23.48;13.73;;;33.00;38.20;;;;;;5067769;28;20425;-69
2022/05/07 09:23:56;;;;;;;22.42;13.65;;;33.60;37.00;;;;;;5048245;28;20438;-71
2022/05/07 09:26:26;;;;;;;21.08;13.45;;;34.20;36.20;;;;;;5048737;28;20815;-71
2022/05/07 09:28:53;;;;;;;21.75;13.90;;;34.50;34.70;;;;;;5066224;28;20950;-70
2022/05/07 09:31:23;;;;;;;24.20;14.52;;;34.80;34.60;;;;;;5066642;28;20405;-71
2022/05/07 09:33:49;;;;;;;21.75;13.25;;;35.20;33.90;;;;;;5062829;28;20412;-69
2022/05/07 09:36:14;;;;;;;23.23;14.43;;;35.60;33.00;;;;;;5066495;28;20870;-70
2022/05/07 09:38:40;;;;;;;27.00;14.45;;;35.60;33.00;;;;;;5064294;28;20510;-69
2022/05/07 09:41:06;;;;;;;;;;;36.10;32.30;;;;;;5068763;28;20494;-68
2022/05/07 09:43:32;;;;;;;;;;;36.80;31.30;;;;;;5065973;28;19912;-70
2022/05/07 09:45:57;;;;;;;;;;;37.40;30.20;;;;;;5067946;28;19996;-70
2022/05/07 09:48:23;;;;;;;;;;;38.10;29.60;;;;;;5066114;28;19916;-72
2022/05/07 09:50:49;;;;;;;;;;;38.70;28.90;;;;;;5068277;28;20415;-72
2022/05/07 09:58:46;;;;;;;;;;;39.80;27.70;;;;;;5064885;28;20321;-70
2022/05/07 10:01:12;;;;;;;;;;;40.20;27.10;;;;;;5069028;28;20292;-70
2022/05/07 10:03:38;;;;;;;;;;;40.60;26.80;;;;;;5071178;28;20007;-70
2022/05/07 10:06:23;;;;;;;;;;;40.90;26.40;;;;;;5071990;28;19908;-68
2022/05/07 10:09:07;;;;;;;;;;;39.00;28.70;;;;;;5069618;28;19953;-72
2022/05/07 10:11:34;;;;;;;;;;;37.50;31.10;;;;;;5069591;28;19923;-70
2022/05/07 10:14:00;;;;;;;;;;;36.60;33.50;;;;;;5069719;28;20265;-69
2022/05/07 10:16:29;;;;;;;;;;;36.10;35.30;;;;;;5070703;28;20068;-70
2022/05/07 10:18:55;;;;;;;;;;;35.80;36.50;;;;;;5068293;28;19909;-68
2022/05/07 10:21:21;;;;;;;;;;;35.60;37.50;;;;;;5068506;28;20438;-70
2022/05/07 10:23:48;;;;;;;;;;;35.50;38.30;;;;;;5068436;28;19919;-70
2022/05/07 10:26:13;;;;;;;;;;;35.40;39.00;;;;;;5070876;28;20308;-71
2022/05/07 10:28:42;;;;;;;;;;;35.30;39.60;;;;;;5071395;28;19916;-69
2022/05/07 10:31:15;;;;;;;;;;;35.40;39.90;;;;;;5067541;28;19915;-69
2022/05/07 10:33:41;;;;;;;;;;;35.40;40.30;;;;;;5069945;28;19924;-70
2022/05/07 10:36:07;;;;;;;;;;;34.70;39.30;;;;;;5070003;28;19912;-69
2022/05/07 10:38:38;;;;;;;;;;;34.10;41.60;;;;;;5069776;28;20007;-71
2022/05/07 10:41:05;;;;;;;;;;;33.70;42.10;;;;;;5066927;28;19917;-72
2022/05/07 10:43:33;;;;;;;;;;;33.60;41.80;;;;;;5070235;28;19923;-69
2022/05/07 10:46:00;;;;;;;;;;;33.30;42.40;;;;;;5070646;28;19908;-69
2022/05/07 10:48:26;;;;;;;;;;;32.80;42.60;;;;;;5067055;28;19963;-70
2022/05/07 10:50:52;;;;;;;;;;;32.10;43.60;;;;;;5060778;28;20392;-70
2022/05/07 10:53:18;;;;;;;;;;;31.40;44.10;;;;;;5070040;28;19908;-69
2022/05/07 10:55:44;;;;;;;;;;;30.90;43.70;;;;;;5069315;28;20440;-69
2022/05/07 10:58:09;;;;;;;;;;;30.70;45.30;;;;;;5071454;28;19917;-69
2022/05/07 11:00:36;;;;;;;;;;;30.70;45.80;;;;;;5069903;28;19962;-70
2022/05/07 11:03:01;;;;;;;;;;;31.00;45.60;;;;;;5068720;28;19912;-70
2022/05/07 11:05:31;;;;;;;;;;;31.50;45.40;;;;;;5065177;28;19921;-69
2022/05/07 11:08:02;;;;;;;;;;;32.10;44.80;;;;;;5071097;28;19916;-70
2022/05/07 11:10:28;;;;;;;;;;;32.60;44.30;;;;;;5069429;28;19915;-70
2022/05/07 11:13:03;;;;;;;;;;;33.10;43.70;;;;;;5070103;28;20365;-70
2022/05/07 11:15:29;;;;;;;;;;;33.40;43.10;;;;;;5067093;28;19955;-69
2022/05/07 11:17:56;;;;;;;;;;;33.60;42.50;;;;;;5052624;28;20234;-69
2022/05/07 11:20:29;;;;;;;;;;;33.60;41.90;;;;;;5069137;28;19961;-69
2022/05/07 11:22:59;;;;;;;;;;;33.60;42.20;;;;;;5068071;28;20256;-70
2022/05/07 11:25:24;;;;;;;;;;;33.70;41.00;;;;;;5068719;28;19958;-69
2022/05/07 11:27:51;;;;;;;;;;;33.60;41.60;;;;;;5067886;28;19916;-70
2022/05/07 11:30:17;;;;;;;;;;;33.50;41.40;;;;;;5067341;28;19948;-68
2022/05/07 11:32:44;;;;;;;;;;;33.30;41.80;;;;;;5071058;28;19920;-69
2022/05/07 11:35:10;;;;;;;;;;;33.00;41.40;;;;;;5068285;28;19908;-69
2022/05/07 11:37:40;;;;;;;;;;;32.90;41.80;;;;;;5068383;28;19908;-70
2022/05/07 11:40:06;;;;;;;;;;;32.90;41.40;;;;;;5069388;28;19920;-69
2022/05/07 11:42:31;;;;;;;;;;;32.70;41.30;;;;;;5068817;28;19913;-71
2022/05/07 11:47:53;;;;;;;;;;;32.70;41.60;;;;;;5071135;28;19909;-70
2022/05/07 11:50:24;;;;;;;;;;;32.60;41.50;;;;;;5068262;28;19996;-68
2022/05/07 11:52:51;;;;;;;;;;;32.60;41.70;;;;;;5068411;28;19908;-71
2022/05/07 11:55:22;;;;;;;;;;;32.60;41.70;;;;;;5066711;28;19922;-69
2022/05/07 11:57:48;;;;;;;;;;;32.50;41.60;;;;;;5065172;28;19916;-69
2022/05/07 12:00:15;;;;;;;;;;;32.50;41.60;;;;;;5067361;28;20279;-69
2022/05/07 12:02:47;;;;;;;;;;;32.40;41.60;;;;;;5068944;28;19931;-69
2022/05/07 12:05:13;;;;;;;;;;;32.30;41.30;;;;;;5066432;28;20393;-69
2022/05/07 12:07:39;;;;;;;;;;;32.20;41.40;;;;;;5066781;28;19981;-70
2022/05/07 12:10:05;;;;;;;;;;;32.10;41.30;;;;;;5067442;28;20396;-70
2022/05/07 12:12:30;;;;;;;;;;;32.00;41.60;;;;;;5068834;28;19912;-69
2022/05/07 12:14:56;;;;;;;;;;;31.90;41.70;;;;;;5070424;28;20404;-70
2022/05/07 12:20:06;;;;;;;;;;;31.60;41.30;;;;;;5068617;28;19923;-70
2022/05/07 12:30:45;;;;;;;;;;;31.20;42.80;;;;;;5069604;28;19917;-70
2022/05/07 12:33:11;;;;;;;;;;;31.20;42.50;;;;;;5066750;28;19965;-70
2022/05/07 12:35:36;;;;;;;;;;;31.30;42.50;;;;;;5068563;28;19916;-70
2022/05/07 12:38:02;;;;;;;;;;;31.30;42.40;;;;;;5066770;28;19917;-70
2022/05/07 12:40:27;;;;;;;;;;;31.40;42.50;;;;;;5068952;28;19999;-70
2022/05/07 12:42:53;;;;;;;;;;;31.50;42.00;;;;;;5068207;28;19920;-69
2022/05/07 12:45:19;;;;;;;;;;;31.40;41.80;;;;;;5069275;28;20357;-71
2022/05/07 12:47:45;;;;;;;;;;;31.40;42.30;;;;;;5067518;28;20253;-70
2022/05/07 12:50:10;;;;;;;;;;;31.40;42.60;;;;;;5070044;28;19916;-70
2022/05/07 12:52:36;;;;;;;;;;;31.60;42.40;;;;;;5064666;28;19993;-70
2022/05/07 12:55:02;;;;;;;;;;;31.60;42.20;;;;;;5067153;28;19908;-70
2022/05/07 12:57:28;;;;;;;;;;;31.50;41.90;;;;;;5068651;28;19908;-67
2022/05/07 12:59:53;;;;;;;;;;;31.20;41.90;;;;;;5066900;28;19954;-71
2022/05/07 13:02:19;;;;;;;;;;;30.90;42.80;;;;;;5067247;28;20249;-70
2022/05/07 13:04:45;;;;;;;;;;;30.80;42.20;;;;;;5065437;28;20356;-70
2022/05/07 13:07:10;;;;;;;;;;;30.60;42.70;;;;;;5067179;28;19913;-69
2022/05/07 13:09:36;;;;;;;;;;;30.40;42.90;;;;;;5068583;28;20289;-72
2022/05/07 13:12:02;;;;;;;;;;;30.30;43.10;;;;;;5066336;28;20285;-69
2022/05/07 13:14:30;;;;;;;;;;;30.20;43.40;;;;;;5051538;28;19916;-74
2022/05/07 13:16:56;;;;;;;;;;;30.00;43.80;;;;;;5067685;28;19923;-70
2022/05/07 13:19:22;;;;;;;;;;;29.80;43.40;;;;;;5068366;28;20276;-70
2022/05/07 13:21:47;;;;;;;;;;;29.60;43.70;;;;;;5066221;28;19991;-72
2022/05/07 13:24:14;;;;;;;;;;;29.40;43.70;;;;;;5068999;28;19961;-70
2022/05/07 13:26:40;;;;;;;;;;;29.30;44.10;;;;;;5065068;28;20258;-69
2022/05/07 13:29:06;;;;;;;;;;;29.30;44.10;;;;;;5067270;28;19913;-70
2022/05/07 13:31:32;;;;;;;;;;;29.30;44.10;;;;;;5067168;28;19930;-71
2022/05/07 13:33:57;;;;;;;;;;;29.30;44.00;;;;;;5071872;28;19920;-72
2022/05/07 13:36:23;;;;;;;;;;;29.20;44.60;;;;;;5070140;28;19908;-69
2022/05/07 13:38:48;;;;;;;;;;;29.20;43.90;;;;;;5073473;28;19908;-68